X  ZamknijMetar - Lotnicze dane pogodowe     EPKT Katowice International

Temperatura

9°C Temperatura

8°C Punkt rosy

94% Wilgotność



Wiatr

32 km/h

20 MPH

 9 m/s

17 KTS



230°
SW
Obecne warunki

Lekki deszcz Lekki deszcz
Ciśnienie 997.92 (hPa) - 29.47 (in)
Widoczność 6.2 (mi) - 10 (km)
Lotnisko
Kod lotniska EPKT

Lokalizacja Katowice International 23 (km)

Metar:
EPKT 232000Z 23017KT 9999 -RA FEW029 BKN040 09/08 Q0998

Czas: 23-02-2020 21:00